Old Washingtn, Ohio
Current Conditions -  °F | °C
As of 8:53 AM on Monday 20 Oct 2014 (Local Time) from KZZV Reporting Station
Overcast Overcast  
Wind Chill: 42°   Ceiling: 12000
Heat Index: 45°   Visibility: 10mi
Dew Point: 39°   Wind: 6mph
Humidity: 80%   Direction: 210°SSW
Pressure: 30.02"   Gusts: NA
Location:  40.0387°N, 81.4447°W
Report Text: KZZV 201253Z AUTO 21005KT 10SM OVC120 07/04 A3002 RMK AO2 SLP169 T00720039
Loading
Personal Weather Stations






























Interactive Weather Map
Tropical Storm Tracking
New forecast layout! Learn more

10-Day Weather Forecast

Advertisements
Track Severe Weather on mobile